Drogheda, Ireland

5:47 PM IST on August 20, 2017 (GMT +0100)
Duleek | | Change Station

Elev 200 ft 53.65 °N, 6.40 °W | Updated 17 seconds ago

Rain
Rain
56.5 °F
Feels Like 56.5 °F
N
13.0
Wind Variable Wind from SE
Gusts 18.0 mph

Today
High -- | Low -- °F
--% Chance of Precip.
Yesterday
High -- | Low -- °F
Precip. -- in
Pressure 30.09 in
Visibility 3.1 miles
Clouds Scattered Clouds 200 ft
Mostly Cloudy 500 ft
Dew Point 55 °F
Humidity 96%
Rainfall 0.17 in
Snow Depth Not available.
6:13 AM 8:43 PM
Waning Crescent, 2% visible
METAR EIDW 201630Z 12012KT 5000 -RA SCT002 BKN005 14/13 Q1019 TEMPO 3000 BKN003
Pressure 30.09 in
Visibility 3.1 miles
Clouds Scattered Clouds 200 ft
Mostly Cloudy 500 ft
Dew Point 55 °F
Humidity 96%
Rainfall 0.17 in
Snow Depth Not available.
6:13 AM 8:43 PM
Waning Crescent, 2% visible
METAR EIDW 201630Z 12012KT 5000 -RA SCT002 BKN005 14/13 Q1019 TEMPO 3000 BKN003

Get Severe Weather Alerts

Thanks for signing up!

Be on the lookout for a verification email in your inbox.

You'll start receiving the daily forecast at 6 AM.

×

10-Day Weather Forecast

×

Almanac

Astronomy

Aug. 20, 2017 Rise Set
Actual Time
Civil Twilight
Nautical Twilight
Astronomical Twilight
Moon
Length of Visible Light
Length of Day
Tomorrow will be .
, % of the Moon is Illuminated

Today's Extremes

Country Highs Country Lows

Community

WunderPhotos

Category 6

Welcome to Category 6. This is the collective home for Weather Underground's featured writeups by Dr. Jeff Masters (right), Bob Henson (left), Chris Burt, and other regular contributors.

Nearby

Air Quality

  Air Quality AQ Index Pollutant
Not available.

Snow Depth

Station Depth Elevation

Earthquake Activity

City Distance Mag. Time & Date
Minimum magnitude displayed is 2.5.

Coastal Water Temperatures

Place Temperature

Stations

Nearby Weather Stations

Station Location Temp. Windchill Dew Point Humidity Wind Precip. Elev Updated Type